Time;durP1;ratioP1;P1;durP2;ratioP2;P2;SDS_P1;SDS_P2;PMS_P1;PMS_P2;Temp;Humidity;BMP_temperature;BMP_pressure;BME280_temperature;BME280_humidity;BME280_pressure;Samples;Min_cycle;Max_cycle;Signal;HPM_P1;HPM_P2
2023/09/10 00:00:41;;;;;;;12.18;10.38;;;23.10;72.30;;;;;;5018399;28;20030;-69
2023/09/10 00:03:06;;;;;;;14.10;10.63;;;23.10;72.40;;;;;;5025186;28;20363;-69
2023/09/10 00:05:32;;;;;;;12.40;9.75;;;23.10;72.40;;;;;;5028718;28;20031;-69
2023/09/10 00:08:00;;;;;;;12.32;10.48;;;23.10;72.50;;;;;;5027045;28;20040;-69
2023/09/10 00:10:26;;;;;;;12.88;11.27;;;23.10;72.50;;;;;;5024288;28;20095;-69
2023/09/10 00:12:52;;;;;;;12.70;10.77;;;23.00;72.60;;;;;;5026410;28;20520;-69
2023/09/10 00:15:18;;;;;;;12.25;10.95;;;23.00;72.50;;;;;;5020599;28;20017;-69
2023/09/10 00:17:44;;;;;;;14.40;11.18;;;23.00;72.60;;;;;;5027202;28;20433;-69
2023/09/10 00:20:10;;;;;;;11.65;10.23;;;23.00;72.70;;;;;;5027727;28;20026;-68
2023/09/10 00:22:37;;;;;;;12.05;10.43;;;22.90;72.70;;;;;;5032231;28;20112;-69
2023/09/10 00:25:04;;;;;;;14.02;11.40;;;22.90;72.80;;;;;;5026193;28;20059;-69
2023/09/10 00:27:30;;;;;;;12.60;10.93;;;22.90;73.50;;;;;;5033086;28;20344;-69
2023/09/10 00:29:56;;;;;;;13.40;11.27;;;22.90;72.90;;;;;;5032411;28;20171;-69
2023/09/10 00:32:22;;;;;;;13.85;11.20;;;22.90;73.00;;;;;;5025122;28;20028;-69
2023/09/10 00:34:47;;;;;;;15.00;11.20;;;22.90;73.00;;;;;;5029253;28;20111;-69
2023/09/10 00:37:16;;;;;;;16.33;11.98;;;22.90;73.00;;;;;;5027448;28;20171;-69
2023/09/10 00:39:42;;;;;;;14.57;11.18;;;22.90;73.00;;;;;;5031320;28;20434;-69
2023/09/10 00:42:09;;;;;;;15.02;11.55;;;22.90;73.10;;;;;;5029794;28;20021;-69
2023/09/10 00:44:38;;;;;;;15.23;11.98;;;22.90;73.20;;;;;;5025971;28;20357;-69
2023/09/10 00:47:05;;;;;;;12.88;11.25;;;22.90;73.30;;;;;;5032518;28;20043;-69
2023/09/10 00:49:31;;;;;;;18.75;12.80;;;22.90;73.40;;;;;;5015557;28;20029;-69
2023/09/10 00:52:00;;;;;;;13.85;12.23;;;22.90;73.40;;;;;;5043326;28;20029;-69
2023/09/10 00:54:30;;;;;;;13.95;12.02;;;22.90;73.40;;;;;;5028523;28;20036;-69
2023/09/10 00:56:56;;;;;;;12.93;11.23;;;22.90;73.40;;;;;;5028994;28;20049;-69
2023/09/10 00:59:21;;;;;;;14.85;12.20;;;22.90;73.50;;;;;;5035001;28;20151;-69
2023/09/10 01:01:48;;;;;;;15.43;12.10;;;22.80;73.50;;;;;;5045876;28;20036;-69
2023/09/10 01:04:16;;;;;;;17.30;12.43;;;22.80;73.60;;;;;;5028245;28;20040;-69
2023/09/10 01:06:42;;;;;;;15.00;11.95;;;22.80;73.60;;;;;;5031116;28;20049;-69
2023/09/10 01:09:08;;;;;;;15.23;11.95;;;22.80;73.50;;;;;;5025630;28;20398;-69
2023/09/10 01:11:46;;;;;;;14.35;12.18;;;22.90;73.60;;;;;;5029274;28;20116;-69
2023/09/10 01:14:25;;;;;;;13.18;11.50;;;22.90;73.60;;;;;;5061094;28;20056;-69
2023/09/10 01:16:58;;;;;;;14.48;12.52;;;22.80;73.60;;;;;;5032154;28;20025;-69
2023/09/10 01:19:33;;;;;;;14.55;11.93;;;22.80;73.60;;;;;;5031966;28;20036;-69
2023/09/10 01:22:30;;;;;;;13.82;11.57;;;22.80;73.70;;;;;;5030668;28;20026;-69
2023/09/10 01:24:57;;;;;;;13.85;11.95;;;22.80;73.70;;;;;;5027550;28;20074;-69
2023/09/10 01:27:23;;;;;;;16.02;12.77;;;22.80;73.90;;;;;;5026902;28;20025;-69
2023/09/10 01:29:49;;;;;;;14.95;13.15;;;22.70;73.90;;;;;;5011989;28;20080;-69
2023/09/10 01:32:26;;;;;;;14.70;13.02;;;22.70;73.90;;;;;;5021673;28;20470;-69
2023/09/10 01:35:06;;;;;;;14.43;12.60;;;22.70;73.90;;;;;;5015860;28;20041;-69
2023/09/10 01:37:45;;;;;;;15.07;12.45;;;22.70;73.90;;;;;;5023780;28;20046;-69
2023/09/10 01:40:16;;;;;;;14.98;13.00;;;22.70;73.90;;;;;;5028043;28;20035;-69
2023/09/10 01:42:44;;;;;;;15.85;12.95;;;22.70;74.00;;;;;;5006827;28;20017;-69
2023/09/10 01:45:11;;;;;;;17.30;13.10;;;22.70;74.00;;;;;;5023365;28;20041;-69
2023/09/10 01:47:36;;;;;;;17.23;13.75;;;22.70;74.00;;;;;;5029620;28;20025;-69
2023/09/10 01:50:03;;;;;;;17.00;13.73;;;22.70;74.00;;;;;;5024972;28;20033;-69
2023/09/10 01:52:29;;;;;;;16.45;13.57;;;22.70;73.90;;;;;;5026493;28;20024;-69
2023/09/10 01:54:55;;;;;;;17.17;14.35;;;22.70;74.00;;;;;;5029179;28;20049;-69
2023/09/10 01:57:21;;;;;;;14.88;13.05;;;22.80;73.90;;;;;;5025189;28;20060;-69
2023/09/10 01:59:47;;;;;;;16.75;13.27;;;22.70;73.80;;;;;;5023635;28;20508;-69
2023/09/10 02:02:12;;;;;;;15.57;13.60;;;22.70;73.80;;;;;;5039998;28;20422;-69
2023/09/10 02:04:38;;;;;;;15.75;13.75;;;22.80;73.80;;;;;;5024595;28;20032;-69
2023/09/10 02:07:04;;;;;;;15.25;13.57;;;22.80;73.70;;;;;;5029153;28;20079;-69
2023/09/10 02:09:30;;;;;;;16.67;14.10;;;22.80;73.60;;;;;;5013169;28;20535;-69
2023/09/10 02:11:56;;;;;;;15.70;12.65;;;22.80;73.60;;;;;;5025211;28;20034;-69
2023/09/10 02:14:21;;;;;;;15.32;13.68;;;22.80;73.60;;;;;;5025488;28;20164;-68
2023/09/10 02:16:47;;;;;;;15.68;13.90;;;22.80;73.70;;;;;;5022881;28;20025;-69
2023/09/10 02:19:14;;;;;;;17.73;14.73;;;22.80;73.60;;;;;;5027204;28;20037;-69
2023/09/10 02:21:39;;;;;;;17.17;14.05;;;22.80;73.60;;;;;;5019667;28;20022;-69
2023/09/10 02:24:05;;;;;;;15.52;13.80;;;22.70;73.60;;;;;;5024516;28;20034;-69
2023/09/10 02:26:31;;;;;;;16.20;13.43;;;22.80;73.60;;;;;;5024100;28;20025;-69
2023/09/10 02:28:57;;;;;;;15.80;13.60;;;22.80;73.70;;;;;;5006952;28;20353;-69
2023/09/10 02:31:23;;;;;;;15.82;14.05;;;22.80;73.70;;;;;;5024668;28;20358;-71
2023/09/10 02:33:48;;;;;;;17.70;13.73;;;22.80;73.80;;;;;;5012563;28;20022;-69
2023/09/10 02:36:14;;;;;;;17.58;13.80;;;22.80;73.80;;;;;;5027127;28;20065;-69
2023/09/10 02:38:40;;;;;;;17.52;14.65;;;22.80;73.90;;;;;;5032408;28;20091;-69
2023/09/10 02:41:06;;;;;;;16.35;14.00;;;22.70;73.90;;;;;;5023361;28;20033;-69
2023/09/10 02:43:31;;;;;;;16.10;13.85;;;22.70;73.90;;;;;;5027661;28;20064;-69
2023/09/10 02:45:57;;;;;;;16.98;14.40;;;22.70;74.00;;;;;;5027611;28;20029;-69
2023/09/10 02:48:23;;;;;;;15.60;13.85;;;22.70;74.10;;;;;;5030187;28;20060;-69
2023/09/10 02:50:48;;;;;;;18.30;15.27;;;22.60;74.10;;;;;;5023544;28;20084;-69
2023/09/10 02:53:14;;;;;;;16.25;14.40;;;22.60;74.20;;;;;;5028303;28;20076;-69
2023/09/10 02:55:40;;;;;;;17.30;14.88;;;22.60;74.30;;;;;;5030121;28;20025;-69
2023/09/10 02:58:06;;;;;;;17.30;15.02;;;22.60;74.30;;;;;;5027409;28;20021;-69
2023/09/10 03:00:32;;;;;;;16.95;14.52;;;22.60;74.40;;;;;;5026222;28;20041;-69
2023/09/10 03:02:58;;;;;;;16.50;14.55;;;22.60;74.40;;;;;;5025941;28;20038;-69
2023/09/10 03:05:24;;;;;;;17.67;14.50;;;22.60;74.40;;;;;;5024243;28;20022;-69
2023/09/10 03:07:54;;;;;;;16.17;14.07;;;22.50;74.40;;;;;;5025561;28;20421;-69
2023/09/10 03:10:20;;;;;;;16.92;15.05;;;22.50;74.50;;;;;;5019496;28;20084;-69
2023/09/10 03:12:46;;;;;;;19.65;16.45;;;22.50;74.60;;;;;;5018843;28;20018;-69
2023/09/10 03:15:13;;;;;;;17.40;15.52;;;22.50;74.70;;;;;;5022875;28;20442;-69
2023/09/10 03:17:39;;;;;;;16.95;14.65;;;22.50;74.70;;;;;;5025621;28;20087;-69
2023/09/10 03:20:09;;;;;;;17.27;14.45;;;22.50;74.70;;;;;;5027965;28;20037;-69
2023/09/10 03:22:36;;;;;;;18.20;15.75;;;22.40;74.70;;;;;;5026314;28;20022;-68
2023/09/10 03:25:02;;;;;;;17.30;15.50;;;22.40;74.80;;;;;;5022567;28;20442;-69
2023/09/10 03:27:29;;;;;;;17.30;15.23;;;22.40;74.80;;;;;;5036726;28;20347;-69
2023/09/10 03:29:55;;;;;;;17.45;15.38;;;22.50;74.90;;;;;;5013943;28;20029;-69
2023/09/10 03:32:21;;;;;;;18.10;15.88;;;22.50;74.80;;;;;;5019947;28;20037;-69
2023/09/10 03:34:47;;;;;;;17.88;15.90;;;22.50;74.80;;;;;;5004503;28;20084;-69
2023/09/10 03:37:13;;;;;;;19.15;16.13;;;22.40;74.80;;;;;;5026717;28;20025;-69
2023/09/10 03:39:39;;;;;;;17.70;15.25;;;22.50;74.80;;;;;;5018403;28;20021;-69
2023/09/10 03:42:06;;;;;;;19.25;16.60;;;22.50;74.90;;;;;;5025206;28;20021;-69
2023/09/10 03:44:31;;;;;;;21.33;17.30;;;22.40;74.80;;;;;;5033236;28;20466;-69
2023/09/10 03:46:57;;;;;;;18.33;16.38;;;22.40;74.80;;;;;;5013485;28;20033;-69
2023/09/10 03:49:23;;;;;;;20.50;18.05;;;22.40;74.80;;;;;;5022747;28;20022;-69
2023/09/10 03:51:49;;;;;;;19.48;16.65;;;22.40;74.80;;;;;;5016865;28;20450;-69
2023/09/10 03:54:15;;;;;;;18.42;16.42;;;22.40;74.80;;;;;;5004724;28;20029;-69
2023/09/10 03:56:41;;;;;;;19.73;17.52;;;22.40;74.80;;;;;;4997414;28;20021;-69
2023/09/10 03:59:07;;;;;;;20.15;17.45;;;22.40;74.90;;;;;;5007486;28;20113;-69
2023/09/10 04:01:34;;;;;;;19.35;17.27;;;22.40;75.00;;;;;;5019628;28;20083;-69
2023/09/10 04:04:01;;;;;;;19.30;16.90;;;22.40;75.00;;;;;;5018976;28;20036;-69
2023/09/10 04:06:27;;;;;;;18.45;16.55;;;22.40;75.00;;;;;;5021427;28;20116;-69
2023/09/10 04:08:52;;;;;;;18.75;16.60;;;22.40;75.00;;;;;;5019929;28;20117;-69
2023/09/10 04:11:18;;;;;;;19.65;16.52;;;22.40;75.00;;;;;;5014819;28;20056;-68
2023/09/10 04:13:44;;;;;;;18.80;16.75;;;22.40;75.00;;;;;;5025047;28;20025;-69
2023/09/10 04:16:10;;;;;;;18.40;16.33;;;22.30;75.00;;;;;;5011945;28;20034;-69
2023/09/10 04:18:35;;;;;;;18.52;16.27;;;22.30;75.10;;;;;;5020647;28;20096;-69
2023/09/10 04:21:04;;;;;;;18.95;16.95;;;22.30;75.10;;;;;;5018077;28;20025;-69
2023/09/10 04:23:30;;;;;;;20.13;18.02;;;22.30;75.10;;;;;;5015830;28;20026;-69
2023/09/10 04:25:56;;;;;;;20.15;17.77;;;22.30;75.30;;;;;;5023850;28;20415;-69
2023/09/10 04:28:23;;;;;;;20.50;17.70;;;22.30;75.10;;;;;;5013511;28;20056;-67
2023/09/10 04:30:48;;;;;;;19.63;17.15;;;22.30;75.10;;;;;;5014784;28;20451;-67
2023/09/10 04:33:16;;;;;;;21.80;18.60;;;22.30;75.10;;;;;;5051206;28;20018;-67
2023/09/10 04:35:53;;;;;;;18.75;16.73;;;22.30;75.10;;;;;;5012117;28;20117;-67
2023/09/10 04:38:20;;;;;;;20.50;17.90;;;22.30;75.10;;;;;;5025508;28;20144;-67
2023/09/10 04:40:46;;;;;;;18.67;16.67;;;22.30;75.10;;;;;;5017104;28;20033;-67
2023/09/10 04:43:12;;;;;;;22.30;19.00;;;22.20;75.10;;;;;;5012682;28;20037;-67
2023/09/10 04:45:38;;;;;;;20.67;18.42;;;22.20;75.10;;;;;;5029391;28;20029;-67
2023/09/10 04:48:04;;;;;;;20.23;18.13;;;22.20;75.20;;;;;;5029686;28;20018;-68
2023/09/10 04:50:31;;;;;;;19.48;17.33;;;22.20;75.20;;;;;;5023236;28;20421;-67
2023/09/10 04:52:57;;;;;;;19.83;17.50;;;22.20;75.30;;;;;;5030612;28;20342;-67
2023/09/10 04:55:23;;;;;;;19.55;17.48;;;22.20;75.30;;;;;;5031224;28;20021;-67
2023/09/10 04:57:49;;;;;;;19.95;17.77;;;22.20;75.40;;;;;;5016117;28;20032;-68
2023/09/10 05:00:15;;;;;;;20.27;17.23;;;22.10;75.30;;;;;;5033268;28;20018;-67
2023/09/10 05:02:40;;;;;;;19.60;17.35;;;22.20;75.30;;;;;;5030635;28;20022;-67
2023/09/10 05:05:07;;;;;;;20.52;18.35;;;22.20;75.40;;;;;;5035271;28;20433;-67
2023/09/10 05:07:33;;;;;;;19.67;16.63;;;22.10;75.30;;;;;;5031395;28;20042;-67
2023/09/10 05:09:59;;;;;;;21.02;17.77;;;22.10;75.30;;;;;;5026053;28;20056;-67
2023/09/10 05:12:24;;;;;;;19.75;17.33;;;22.10;75.40;;;;;;5028595;28;20040;-67
2023/09/10 05:14:50;;;;;;;19.52;17.48;;;22.10;75.40;;;;;;5034887;28;20043;-67
2023/09/10 05:17:16;;;;;;;19.55;17.45;;;22.10;75.50;;;;;;5019763;28;20108;-67
2023/09/10 05:19:43;;;;;;;19.02;17.02;;;22.00;75.50;;;;;;5036884;28;20450;-67
2023/09/10 05:22:09;;;;;;;19.40;17.40;;;22.00;75.60;;;;;;5032392;28;20030;-67
2023/09/10 05:24:35;;;;;;;20.30;18.13;;;22.10;75.60;;;;;;5027603;28;20034;-68
2023/09/10 05:27:02;;;;;;;21.20;19.00;;;22.10;75.60;;;;;;5035557;28;20053;-67
2023/09/10 05:29:28;;;;;;;20.30;18.20;;;22.00;75.50;;;;;;5020075;28;20040;-67
2023/09/10 05:31:54;;;;;;;20.73;17.77;;;22.10;75.60;;;;;;5036510;28;20026;-67
2023/09/10 05:34:20;;;;;;;20.08;17.60;;;22.10;75.60;;;;;;5034289;28;20057;-67
2023/09/10 05:36:47;;;;;;;19.63;17.58;;;22.10;75.60;;;;;;5036603;28;20506;-67
2023/09/10 05:39:13;;;;;;;19.35;17.08;;;22.10;75.60;;;;;;5020052;28;20108;-67
2023/09/10 05:41:39;;;;;;;19.80;17.70;;;22.10;75.70;;;;;;5036362;28;20087;-67
2023/09/10 05:44:05;;;;;;;21.13;18.92;;;22.10;75.70;;;;;;5035441;28;20029;-67
2023/09/10 05:46:31;;;;;;;23.25;19.52;;;22.10;75.60;;;;;;5027720;28;20060;-67
2023/09/10 05:48:57;;;;;;;19.83;17.73;;;22.20;75.60;;;;;;5027033;28;20454;-67
2023/09/10 05:51:23;;;;;;;20.88;18.65;;;22.20;75.60;;;;;;5031207;28;20446;-67
2023/09/10 05:53:48;;;;;;;21.65;19.35;;;22.20;75.50;;;;;;5028372;28;20080;-67
2023/09/10 05:56:14;;;;;;;22.80;18.40;;;22.20;75.50;;;;;;5028618;28;20088;-67
2023/09/10 05:58:41;;;;;;;21.50;17.88;;;22.20;75.40;;;;;;5028860;28;20116;-69
2023/09/10 06:01:07;;;;;;;19.60;17.50;;;22.30;75.40;;;;;;5025606;28;20525;-67
2023/09/10 06:03:33;;;;;;;20.80;18.67;;;22.30;75.30;;;;;;5043138;28;20113;-67
2023/09/10 06:06:01;;;;;;;21.75;19.08;;;22.40;75.30;;;;;;5032276;28;20335;-67
2023/09/10 06:08:30;;;;;;;21.05;18.77;;;22.40;75.10;;;;;;5022313;28;20042;-68
2023/09/10 06:10:56;;;;;;;19.75;17.65;;;22.40;74.90;;;;;;5015938;28;20037;-68
2023/09/10 06:13:22;;;;;;;20.77;17.88;;;22.50;74.90;;;;;;5028481;28;20033;-68
2023/09/10 06:15:48;;;;;;;21.88;19.30;;;22.50;74.90;;;;;;5026718;28;20021;-69
2023/09/10 06:18:14;;;;;;;20.98;18.77;;;22.60;74.80;;;;;;5017620;28;20076;-68
2023/09/10 06:20:40;;;;;;;21.25;19.10;;;22.60;74.60;;;;;;5026466;28;20030;-67
2023/09/10 06:23:05;;;;;;;22.75;19.27;;;22.60;74.50;;;;;;5025371;28;20068;-68
2023/09/10 06:25:32;;;;;;;20.98;18.77;;;22.70;74.50;;;;;;5008248;28;20029;-68
2023/09/10 06:27:58;;;;;;;21.27;19.08;;;22.80;74.40;;;;;;5012901;28;20053;-67
2023/09/10 06:30:24;;;;;;;21.85;18.15;;;23.10;73.90;;;;;;5006011;28;20072;-67
2023/09/10 06:32:50;;;;;;;22.20;18.88;;;23.50;73.10;;;;;;5017331;28;20030;-66
2023/09/10 06:35:16;;;;;;;21.17;18.92;;;23.70;72.20;;;;;;5026419;28;20420;-67
2023/09/10 06:37:42;;;;;;;20.92;18.15;;;23.90;71.50;;;;;;5024477;28;20116;-67
2023/09/10 06:40:09;;;;;;;20.85;18.65;;;24.00;71.40;;;;;;5004975;28;20025;-68
2023/09/10 06:42:35;;;;;;;20.88;18.65;;;23.90;71.40;;;;;;5027264;28;20025;-68
2023/09/10 06:45:14;;;;;;;21.42;18.50;;;23.90;71.70;;;;;;5017966;28;20029;-67
2023/09/10 06:47:40;;;;;;;20.75;18.60;;;23.80;71.80;;;;;;5026625;28;20032;-67
2023/09/10 06:50:06;;;;;;;20.65;18.52;;;23.80;71.80;;;;;;5026582;28;20017;-68
2023/09/10 06:52:32;;;;;;;22.30;19.90;;;23.80;71.70;;;;;;5023111;28;20033;-67
2023/09/10 06:54:58;;;;;;;20.55;18.23;;;23.80;71.80;;;;;;5015627;28;20366;-68
2023/09/10 06:57:23;;;;;;;20.77;18.55;;;23.80;71.70;;;;;;5026850;28;20032;-68
2023/09/10 06:59:49;;;;;;;22.75;18.80;;;23.80;71.80;;;;;;5025468;28;20427;-67
2023/09/10 07:02:15;;;;;;;22.45;19.00;;;23.90;71.70;;;;;;5025887;28;20037;-67
2023/09/10 07:04:47;;;;;;;20.50;18.27;;;23.90;71.70;;;;;;5023488;28;20465;-67
2023/09/10 07:07:14;;;;;;;22.92;20.17;;;24.00;71.60;;;;;;5024644;28;20049;-67
2023/09/10 07:09:40;;;;;;;22.08;18.02;;;24.00;71.50;;;;;;5016171;28;20451;-67
2023/09/10 07:12:06;;;;;;;21.00;18.80;;;24.10;71.40;;;;;;5026676;28;20033;-67
2023/09/10 07:14:33;;;;;;;20.67;18.40;;;24.10;71.30;;;;;;5026413;28;20071;-67
2023/09/10 07:16:58;;;;;;;21.80;19.50;;;24.20;71.40;;;;;;5025329;28;20041;-67
2023/09/10 07:19:24;;;;;;;23.27;20.13;;;24.30;71.50;;;;;;5022259;28;20057;-67
2023/09/10 07:21:50;;;;;;;21.88;19.58;;;24.40;71.40;;;;;;5022742;28;20411;-67
2023/09/10 07:24:15;;;;;;;22.13;19.83;;;24.40;71.30;;;;;;5025261;28;20336;-67
2023/09/10 07:26:43;;;;;;;22.17;19.80;;;24.50;71.00;;;;;;5013471;28;20109;-67
2023/09/10 07:29:08;;;;;;;23.23;19.55;;;24.60;70.80;;;;;;5025945;28;20037;-67
2023/09/10 07:31:35;;;;;;;22.83;19.65;;;24.70;70.70;;;;;;5020961;28;20033;-67
2023/09/10 07:34:02;;;;;;;21.83;19.52;;;24.70;70.70;;;;;;5024982;28;20026;-67
2023/09/10 07:36:28;;;;;;;22.98;20.38;;;24.80;70.60;;;;;;5034527;28;20037;-67
2023/09/10 07:38:54;;;;;;;23.20;20.80;;;24.90;70.50;;;;;;5024295;28;20032;-67
2023/09/10 07:41:21;;;;;;;23.23;20.75;;;25.10;70.40;;;;;;5023397;28;20029;-67
2023/09/10 07:43:46;;;;;;;23.40;20.90;;;25.10;70.10;;;;;;5024393;28;20032;-67
2023/09/10 07:46:12;;;;;;;22.65;20.30;;;25.30;69.90;;;;;;5022252;28;20029;-67
2023/09/10 07:48:38;;;;;;;23.45;20.42;;;25.40;69.60;;;;;;5024144;28;20470;-67
2023/09/10 07:51:05;;;;;;;23.38;20.90;;;25.60;69.40;;;;;;5026400;28;20033;-67
2023/09/10 07:53:31;;;;;;;23.67;21.17;;;25.70;69.10;;;;;;5025733;28;20061;-67
2023/09/10 07:55:57;;;;;;;22.80;19.85;;;25.90;68.80;;;;;;5021265;28;20443;-67
2023/09/10 07:58:23;;;;;;;25.88;21.40;;;26.10;68.60;;;;;;5025100;28;20044;-66
2023/09/10 08:00:53;;;;;;;25.08;21.17;;;26.30;68.20;;;;;;5021266;28;20059;-66
2023/09/10 08:03:18;;;;;;;25.70;22.77;;;26.40;67.60;;;;;;5025045;28;20358;-66
2023/09/10 08:05:44;;;;;;;22.83;20.25;;;26.60;67.30;;;;;;5022006;28;20048;-66
2023/09/10 08:08:10;;;;;;;24.33;21.77;;;26.70;67.00;;;;;;5021537;28;20045;-66
2023/09/10 08:10:35;;;;;;;23.60;20.42;;;26.90;66.80;;;;;;5023341;28;20042;-66
2023/09/10 08:13:03;;;;;;;24.77;22.13;;;27.00;66.70;;;;;;5021733;28;20049;-67
2023/09/10 08:15:32;;;;;;;24.60;21.35;;;27.10;66.30;;;;;;5022141;28;20435;-67
2023/09/10 08:17:59;;;;;;;23.95;21.38;;;27.30;66.00;;;;;;5022756;28;20026;-67
2023/09/10 08:20:24;;;;;;;24.23;21.75;;;27.40;65.80;;;;;;5022164;28;20035;-67
2023/09/10 08:22:51;;;;;;;22.75;20.45;;;27.50;65.60;;;;;;5024721;28;20366;-67
2023/09/10 08:25:16;;;;;;;24.88;21.33;;;27.60;65.40;;;;;;5025399;28;20435;-67
2023/09/10 08:27:42;;;;;;;22.88;20.48;;;27.80;65.20;;;;;;5027253;28;20075;-67
2023/09/10 08:30:09;;;;;;;23.15;20.77;;;27.90;64.90;;;;;;5026511;28;20017;-67
2023/09/10 08:32:37;;;;;;;24.60;21.98;;;28.00;64.80;;;;;;5028229;28;20051;-67
2023/09/10 08:35:04;;;;;;;22.83;19.65;;;28.20;64.70;;;;;;5029845;28;20076;-66
2023/09/10 08:37:30;;;;;;;24.90;21.35;;;28.30;64.60;;;;;;5023220;28;20098;-66
2023/09/10 08:39:56;;;;;;;24.52;21.60;;;28.40;64.00;;;;;;5031094;28;20025;-66
2023/09/10 08:42:53;;;;;;;23.45;20.92;;;28.50;63.60;;;;;;5024353;28;20044;-66
2023/09/10 08:45:19;;;;;;;23.50;20.98;;;28.60;63.30;;;;;;5026056;28;20040;-66
2023/09/10 08:47:48;;;;;;;22.88;20.35;;;28.70;63.20;;;;;;5030402;28;20694;-66
2023/09/10 08:50:14;;;;;;;23.27;20.42;;;28.80;62.90;;;;;;5028276;28;20034;-66
2023/09/10 08:52:43;;;;;;;27.10;21.50;;;29.00;62.90;;;;;;5023918;28;20108;-66
2023/09/10 08:55:13;;;;;;;24.88;20.60;;;29.00;62.60;;;;;;5027059;28;20030;-66
2023/09/10 08:57:41;;;;;;;24.10;20.70;;;29.20;62.80;;;;;;5028706;28;20362;-65
2023/09/10 09:00:12;;;;;;;22.60;20.20;;;29.20;62.20;;;;;;5018957;28;20033;-67
2023/09/10 09:02:44;;;;;;;;;;;29.30;62.20;;;;;;5024156;28;20029;-67
2023/09/10 09:05:11;;;;;;;23.63;20.80;;;29.40;62.30;;;;;;5026193;28;20392;-67
2023/09/10 09:07:52;;;;;;;23.45;19.45;;;29.40;61.70;;;;;;5054601;28;20419;-67
2023/09/10 09:10:18;;;;;;;;;;;29.50;61.80;;;;;;5030031;28;20140;-67
2023/09/10 09:12:46;;;;;;;21.98;17.33;;;29.60;61.90;;;;;;5028949;28;19909;-66
2023/09/10 09:15:12;;;;;;;21.75;19.05;;;29.60;61.30;;;;;;5030300;28;20033;-67
2023/09/10 09:17:38;;;;;;;22.30;19.25;;;29.70;60.80;;;;;;5025172;28;20043;-67
2023/09/10 09:20:10;;;;;;;23.40;20.23;;;29.70;60.40;;;;;;5031519;28;20040;-67
2023/09/10 09:22:42;;;;;;;23.45;20.45;;;29.80;59.90;;;;;;5023034;28;20040;-67
2023/09/10 09:25:09;;;;;;;23.60;17.35;;;29.90;59.90;;;;;;5050589;28;20124;-68
2023/09/10 09:27:36;;;;;;;20.42;16.98;;;29.80;59.80;;;;;;5031008;28;20018;-68
2023/09/10 09:30:06;;;;;;;22.10;19.40;;;29.90;59.80;;;;;;5029523;28;20025;-67
2023/09/10 09:32:35;;;;;;;19.90;15.57;;;30.00;59.90;;;;;;5021827;28;20443;-67
2023/09/10 09:35:00;;;;;;;19.35;17.00;;;30.00;59.60;;;;;;5028239;28;20037;-67
2023/09/10 09:37:26;;;;;;;18.73;15.57;;;30.10;59.60;;;;;;5026174;28;20032;-67
2023/09/10 09:39:52;;;;;;;20.40;18.25;;;30.20;59.40;;;;;;5015360;28;20362;-68
2023/09/10 09:42:21;;;;;;;19.75;15.80;;;30.30;58.80;;;;;;5027864;28;20025;-67
2023/09/10 09:44:46;;;;;;;18.73;16.00;;;30.40;58.50;;;;;;5023712;28;20034;-67
2023/09/10 09:47:12;;;;;;;19.85;16.77;;;30.40;58.10;;;;;;5023053;28;20033;-68
2023/09/10 09:49:46;;;;;;;19.90;17.05;;;30.40;58.10;;;;;;5026737;28;20026;-67
2023/09/10 09:52:13;;;;;;;22.65;17.95;;;30.50;57.70;;;;;;5017265;28;20041;-66
2023/09/10 09:54:39;;;;;;;18.08;15.00;;;30.60;57.50;;;;;;5028036;28;20025;-67
2023/09/10 09:57:06;;;;;;;18.17;15.02;;;30.60;57.40;;;;;;5029210;28;20026;-67
2023/09/10 09:59:38;;;;;;;20.77;15.93;;;30.60;57.30;;;;;;5027606;28;20109;-67
2023/09/10 10:02:04;;;;;;;18.70;15.13;;;30.70;57.10;;;;;;5028674;28;20023;-67
2023/09/10 10:04:33;;;;;;;18.00;14.77;;;30.70;57.00;;;;;;5026864;28;20068;-67
2023/09/10 10:07:01;;;;;;;17.45;13.38;;;30.80;57.20;;;;;;5057052;28;20041;-68
2023/09/10 10:09:40;;;;;;;18.65;13.57;;;30.90;56.60;;;;;;5027727;28;20037;-67
2023/09/10 10:12:07;;;;;;;16.77;11.20;;;31.00;56.80;;;;;;5021808;28;20033;-67
2023/09/10 10:14:34;;;;;;;17.83;13.52;;;31.00;56.80;;;;;;5020454;28;20021;-67
2023/09/10 10:17:02;;;;;;;19.48;13.73;;;31.20;56.60;;;;;;5015875;28;20032;-67
2023/09/10 10:19:30;;;;;;;16.67;12.48;;;31.20;56.10;;;;;;5020619;28;20037;-67
2023/09/10 10:21:56;;;;;;;17.08;11.90;;;31.30;55.80;;;;;;5026256;28;20025;-67
2023/09/10 10:24:23;;;;;;;20.85;16.30;;;31.30;55.70;;;;;;5022503;28;20117;-70
2023/09/10 10:26:51;;;;;;;15.88;12.68;;;31.30;55.30;;;;;;5030517;28;20517;-70
2023/09/10 10:29:18;;;;;;;17.92;12.43;;;31.30;55.50;;;;;;5028438;28;20084;-70
2023/09/10 10:31:47;;;;;;;16.15;10.68;;;31.30;55.40;;;;;;5027574;28;20462;-70
2023/09/10 10:34:26;;;;;;;18.92;12.43;;;31.40;55.20;;;;;;5025751;28;20017;-70
2023/09/10 10:37:03;;;;;;;17.80;11.88;;;31.40;55.00;;;;;;5026137;28;20686;-71
2023/09/10 10:39:46;;;;;;;16.70;12.40;;;31.50;55.00;;;;;;5025777;28;20094;-70
2023/09/10 10:42:17;;;;;;;15.10;10.75;;;31.60;54.80;;;;;;5022959;28;20030;-70
2023/09/10 10:44:43;;;;;;;15.15;10.85;;;31.60;54.80;;;;;;5025075;28;20112;-70
2023/09/10 10:47:13;;;;;;;17.23;11.93;;;31.60;54.90;;;;;;5008588;28;20121;-70
2023/09/10 10:49:51;;;;;;;14.45;10.93;;;31.60;54.60;;;;;;5023976;28;20677;-70
2023/09/10 10:52:20;;;;;;;13.48;9.77;;;31.60;54.60;;;;;;5025579;28;20363;-70
2023/09/10 10:54:49;;;;;;;13.65;9.98;;;31.60;54.80;;;;;;5027915;28;20029;-70
2023/09/10 10:57:16;;;;;;;15.20;10.52;;;31.70;54.80;;;;;;5029269;28;20033;-70
2023/09/10 10:59:42;;;;;;;17.08;11.25;;;31.70;54.60;;;;;;5027793;28;20033;-70
2023/09/10 11:02:22;;;;;;;14.73;9.60;;;31.70;54.50;;;;;;5028611;28;20025;-70
2023/09/10 11:05:01;;;;;;;13.55;9.43;;;31.80;54.50;;;;;;5024461;28;20033;-70
2023/09/10 11:07:29;;;;;;;21.10;10.10;;;31.80;54.60;;;;;;5023596;28;20129;-70
2023/09/10 11:09:57;;;;;;;14.10;9.10;;;31.90;54.50;;;;;;5015813;28;20109;-70
2023/09/10 11:12:23;;;;;;;14.52;9.93;;;31.90;54.50;;;;;;5028717;28;20091;-70
2023/09/10 11:15:03;;;;;;;13.65;9.75;;;31.90;54.50;;;;;;5027294;28;20375;-70
2023/09/10 11:17:33;;;;;;;13.25;9.15;;;32.00;54.30;;;;;;5052340;28;20036;-70
2023/09/10 11:19:59;;;;;;;53.58;17.42;;;31.90;54.40;;;;;;5029130;28;20017;-70
2023/09/10 11:22:26;;;;;;;18.42;12.13;;;32.00;54.40;;;;;;5026165;28;20108;-70
2023/09/10 11:25:05;;;;;;;15.82;10.43;;;31.90;54.40;;;;;;5027310;28;20046;-70
2023/09/10 11:27:33;;;;;;;13.88;8.88;;;32.00;54.30;;;;;;5028747;28;20521;-69
2023/09/10 11:30:11;;;;;;;16.70;10.07;;;32.00;54.50;;;;;;5023045;28;20041;-70
2023/09/10 11:32:37;;;;;;;14.95;9.82;;;32.00;54.50;;;;;;5030402;28;20032;-70
2023/09/10 11:35:18;;;;;;;13.75;9.48;;;32.00;54.40;;;;;;5021700;28;20320;-70
2023/09/10 11:37:50;;;;;;;12.63;9.43;;;32.00;54.40;;;;;;5026439;28;20030;-69
2023/09/10 11:40:18;;;;;;;16.02;9.60;;;31.90;54.10;;;;;;5022704;28;20443;-71
2023/09/10 11:42:45;;;;;;;11.60;8.35;;;31.90;54.10;;;;;;5049850;28;20470;-70
2023/09/10 11:45:12;;;;;;;14.68;8.32;;;31.90;53.90;;;;;;5019244;28;20029;-71
2023/09/10 11:47:42;;;;;;;14.57;9.27;;;31.90;53.90;;;;;;4998012;28;20406;-70
2023/09/10 11:50:10;;;;;;;16.27;9.35;;;31.90;54.30;;;;;;5025842;28;20564;-71
2023/09/10 11:52:36;;;;;;;11.82;7.80;;;31.90;53.90;;;;;;5023213;28;20029;-71
2023/09/10 11:55:05;;;;;;;11.35;7.70;;;31.90;53.90;;;;;;5027900;28;20025;-70
2023/09/10 11:57:30;;;;;;;14.68;7.68;;;31.80;53.60;;;;;;5032382;28;20030;-70
2023/09/10 11:59:56;;;;;;;12.90;7.18;;;31.80;53.60;;;;;;5018986;28;20018;-70
2023/09/10 12:02:24;;;;;;;14.07;7.63;;;31.80;53.80;;;;;;5023681;28;20033;-69
2023/09/10 12:04:49;;;;;;;12.00;7.57;;;31.80;53.90;;;;;;5013035;28;20021;-69
2023/09/10 12:07:15;;;;;;;12.77;7.93;;;31.70;53.90;;;;;;5028883;28;20045;-68
2023/09/10 12:09:41;;;;;;;10.23;6.47;;;31.70;53.80;;;;;;5020293;28;20030;-68
2023/09/10 12:12:17;;;;;;;10.70;7.30;;;31.70;53.90;;;;;;5016004;28;20124;-70
2023/09/10 12:14:43;;;;;;;10.25;6.93;;;31.70;54.00;;;;;;5014348;28;20026;-72
2023/09/10 12:17:09;;;;;;;11.65;7.03;;;31.60;54.20;;;;;;5017634;28;20036;-71
2023/09/10 12:19:37;;;;;;;11.43;6.82;;;31.60;54.40;;;;;;5021664;28;20133;-71
2023/09/10 12:22:09;;;;;;;11.90;7.05;;;31.50;54.20;;;;;;5018661;28;20029;-72
2023/09/10 12:24:36;;;;;;;12.95;7.38;;;31.40;54.20;;;;;;5019194;28;20025;-71
2023/09/10 12:27:02;;;;;;;10.20;7.20;;;31.40;54.30;;;;;;5019446;28;20367;-72
2023/09/10 12:29:28;;;;;;;12.02;7.85;;;31.40;53.90;;;;;;5016860;28;20026;-71